Morganton, Georgia
Current Conditions -  °F | °C
As of 11:15 AM on Thursday 18 Dec 2014 (Local Time) from KRHP Reporting Station
Overcast Overcast  
Wind Chill: 38°   Ceiling: 6500
Heat Index: 38°   Visibility: 10mi
Dew Point: 34°   Wind: 3mph
Humidity: 84%   Direction: 230°SW
Pressure: 30.18"   Gusts: NA
Location:  34.87°N, 84.25°W
Report Text: KRHP 181615Z AUTO 23003KT 10SM OVC065 03/01 A3018 RMK AO2 T00340009
Loading
Personal Weather Stations






























Interactive Weather Map New forecast layout! Learn more

10-Day Weather Forecast

Advertisements
Track Severe Weather on mobile